createdAt,value
2022-11-02T00:00:51.007Z,4.50
2022-11-02T00:05:55.853Z,4.68
2022-11-02T00:10:59.400Z,4.93
2022-11-02T00:16:04.179Z,4.70
2022-11-02T00:21:09.291Z,4.97
2022-11-02T00:26:13.007Z,5.22
2022-11-02T00:31:16.833Z,5.53
2022-11-02T00:36:22.112Z,5.05
2022-11-02T00:41:25.793Z,5.30
2022-11-02T00:46:29.276Z,5.47
2022-11-02T00:51:34.246Z,5.07
2022-11-02T00:56:39.120Z,4.75
2022-11-02T01:01:47.324Z,5.10
2022-11-02T01:06:52.321Z,4.90
2022-11-02T01:11:55.854Z,5.03
2022-11-02T01:16:59.373Z,4.90
2022-11-02T01:22:04.366Z,4.82
2022-11-02T01:27:07.959Z,4.75
2022-11-02T01:32:11.392Z,4.50
2022-11-02T01:37:16.263Z,3.97
2022-11-02T01:42:22.693Z,4.50
2022-11-02T01:47:31.298Z,4.30
2022-11-02T01:52:38.779Z,4.18
2022-11-02T01:57:47.210Z,4.53
2022-11-02T02:02:58.236Z,3.95
2022-11-02T02:08:07.688Z,4.13
2022-11-02T02:13:12.083Z,3.85
2022-11-02T02:18:27.419Z,3.83
2022-11-02T02:24:19.502Z,3.65
2022-11-02T02:29:30.279Z,3.42
2022-11-02T02:34:42.831Z,3.80
2022-11-02T02:39:53.369Z,3.63
2022-11-02T02:45:07.083Z,3.88
2022-11-02T02:50:18.525Z,3.50
2022-11-02T02:55:28.048Z,3.58
2022-11-02T03:00:36.189Z,3.53
2022-11-02T03:05:40.251Z,3.65
2022-11-02T03:10:54.680Z,3.30
2022-11-02T03:16:05.703Z,3.17
2022-11-02T03:21:21.797Z,3.22
2022-11-02T03:26:34.544Z,3.38
2022-11-02T03:31:46.367Z,3.20
2022-11-02T03:37:01.882Z,3.15
2022-11-02T03:42:06.293Z,3.28
2022-11-02T03:47:17.496Z,2.78
2022-11-02T03:52:26.192Z,2.85
2022-11-02T03:57:40.457Z,2.78
2022-11-02T04:02:49.119Z,2.63
2022-11-02T04:08:13.034Z,3.00
2022-11-02T04:13:34.565Z,2.92
2022-11-02T04:18:57.237Z,2.92
2022-11-02T04:24:19.279Z,2.83
2022-11-02T04:29:24.090Z,2.42
2022-11-02T04:34:29.160Z,2.42
2022-11-02T04:39:33.092Z,2.30
2022-11-02T04:44:36.722Z,2.67
2022-11-02T04:49:52.333Z,2.50
2022-11-02T04:54:56.462Z,2.20
2022-11-02T05:00:00.035Z,2.50
2022-11-02T05:05:08.053Z,2.00
2022-11-02T05:10:12.771Z,2.60
2022-11-02T05:15:17.479Z,2.30
2022-11-02T05:20:23.395Z,2.20
2022-11-02T05:25:27.062Z,2.40
2022-11-02T05:30:32.287Z,2.30
2022-11-02T05:35:38.170Z,2.13
2022-11-02T05:40:41.997Z,2.10
2022-11-02T05:45:55.116Z,2.28
2022-11-02T05:51:01.909Z,2.10
2022-11-02T05:56:09.516Z,2.20
2022-11-02T06:06:17.979Z,2.47
2022-11-02T06:11:21.653Z,2.20
2022-11-02T06:16:25.392Z,2.08
2022-11-02T06:21:30.362Z,2.15
2022-11-02T06:26:33.832Z,1.90
2022-11-02T06:31:37.533Z,1.90
2022-11-02T06:36:42.490Z,1.90
2022-11-02T06:41:46.005Z,2.00
2022-11-02T06:46:49.500Z,1.90
2022-11-02T06:51:54.778Z,1.90
2022-11-02T06:56:58.639Z,1.77
2022-11-02T07:02:02.187Z,1.90
2022-11-02T07:07:07.409Z,1.67
2022-11-02T07:12:10.913Z,2.00
2022-11-02T07:17:14.433Z,1.80
2022-11-02T07:22:19.388Z,1.95
2022-11-02T07:27:22.854Z,2.25
2022-11-02T07:32:26.319Z,2.17
2022-11-02T07:37:31.553Z,1.90
2022-11-02T07:42:35.473Z,2.30
2022-11-02T07:47:45.859Z,2.28
2022-11-02T07:52:53.776Z,2.30
2022-11-02T07:57:59.960Z,2.30
2022-11-02T08:03:05.942Z,2.25
2022-11-02T08:08:15.396Z,2.40
2022-11-02T08:13:22.363Z,2.50
2022-11-02T08:18:28.075Z,2.63
2022-11-02T08:23:32.872Z,2.20
2022-11-02T08:28:40.005Z,2.33
2022-11-02T08:33:43.678Z,2.10
2022-11-02T08:38:48.576Z,2.03
2022-11-02T08:43:52.200Z,2.40
2022-11-02T08:48:55.637Z,2.33
2022-11-02T08:54:00.486Z,2.15
2022-11-02T08:59:03.984Z,2.13
2022-11-02T09:04:07.496Z,2.30
2022-11-02T09:09:12.796Z,2.10
2022-11-02T09:14:16.642Z,1.92
2022-11-02T09:19:20.178Z,1.95
2022-11-02T09:24:25.034Z,2.03
2022-11-02T09:29:28.675Z,2.40
2022-11-02T09:34:32.173Z,2.30
2022-11-02T09:39:37.041Z,2.20
2022-11-02T09:44:50.692Z,2.22
2022-11-02T09:49:55.785Z,2.08
2022-11-02T09:55:05.029Z,2.17
2022-11-02T10:00:15.686Z,2.33
2022-11-02T10:05:33.989Z,2.15
2022-11-02T10:10:48.250Z,2.17
2022-11-02T10:15:57.559Z,2.05
2022-11-02T10:21:07.043Z,2.15
2022-11-02T10:26:20.826Z,2.20
2022-11-02T10:31:30.625Z,2.05
2022-11-02T10:36:50.460Z,2.10
2022-11-02T10:42:22.965Z,2.17
2022-11-02T10:47:28.909Z,2.10
2022-11-02T10:52:39.692Z,2.22
2022-11-02T10:57:44.733Z,1.80
2022-11-02T11:02:48.876Z,1.92
2022-11-02T11:07:52.325Z,2.10
2022-11-02T11:12:57.957Z,1.75
2022-11-02T11:23:34.691Z,2.05
2022-11-02T11:28:53.916Z,1.77
2022-11-02T11:34:00.243Z,1.70
2022-11-02T11:39:08.517Z,2.00
2022-11-02T11:44:16.247Z,1.80
2022-11-02T11:54:57.183Z,1.75
2022-11-02T12:00:26.370Z,1.85
2022-11-02T12:05:30.069Z,1.60
2022-11-02T12:11:05.188Z,1.90
2022-11-02T12:16:22.570Z,1.88
2022-11-02T12:21:48.383Z,1.75
2022-11-02T12:27:12.124Z,1.80
2022-11-02T12:32:48.744Z,1.80
2022-11-02T12:38:14.943Z,1.60
2022-11-02T12:43:41.098Z,1.70
2022-11-02T12:49:03.022Z,2.00
2022-11-02T12:54:13.403Z,1.55
2022-11-02T12:59:23.883Z,1.75
2022-11-02T13:04:39.670Z,1.88
2022-11-02T13:10:02.154Z,1.65
2022-11-02T13:15:12.087Z,1.60
2022-11-02T13:20:23.086Z,1.70
2022-11-02T13:25:34.517Z,1.63
2022-11-02T13:30:38.415Z,1.77
2022-11-02T13:35:43.470Z,1.75
2022-11-02T13:40:53.463Z,1.80
2022-11-02T13:46:31.576Z,1.58
2022-11-02T13:51:42.512Z,1.50
2022-11-02T13:56:47.402Z,1.38
2022-11-02T14:01:54.712Z,1.50
2022-11-02T14:07:04.002Z,1.45
2022-11-02T14:12:39.672Z,1.38
2022-11-02T14:18:02.311Z,1.30
2022-11-02T14:23:40.871Z,1.40
2022-11-02T14:28:45.497Z,1.30
2022-11-02T14:34:11.219Z,1.40
2022-11-02T14:39:24.980Z,1.35
2022-11-02T14:45:07.239Z,1.48
2022-11-02T14:50:19.588Z,1.23
2022-11-02T14:55:40.449Z,1.10
2022-11-02T15:06:06.972Z,1.08
2022-11-02T15:11:49.448Z,1.30
2022-11-02T15:16:54.208Z,1.20
2022-11-02T15:22:35.849Z,1.35
2022-11-02T15:27:44.843Z,1.20
2022-11-02T15:33:00.406Z,1.30
2022-11-02T15:38:30.504Z,1.27
2022-11-02T15:44:02.490Z,1.30
2022-11-02T15:49:29.034Z,1.23
2022-11-02T15:55:02.253Z,1.40
2022-11-02T16:00:18.840Z,1.25
2022-11-02T16:05:26.701Z,1.35
2022-11-02T16:10:34.534Z,1.30
2022-11-02T16:15:42.267Z,1.17
2022-11-02T16:25:52.096Z,1.40
2022-11-02T16:31:17.325Z,1.40
2022-11-02T16:36:25.007Z,1.47
2022-11-02T16:41:32.103Z,1.40
2022-11-02T16:46:49.034Z,1.10
2022-11-02T16:51:56.139Z,1.10
2022-11-02T16:57:11.217Z,1.30
2022-11-02T17:02:17.227Z,1.38
2022-11-02T17:07:26.761Z,1.40
2022-11-02T17:12:37.840Z,1.35
2022-11-02T17:17:42.971Z,1.30
2022-11-02T17:22:59.367Z,1.50
2022-11-02T17:28:06.677Z,1.30
2022-11-02T17:33:27.677Z,1.40
2022-11-02T17:38:31.250Z,1.30
2022-11-02T17:43:35.058Z,1.25
2022-11-02T17:48:40.117Z,1.50
2022-11-02T17:53:46.238Z,1.10
2022-11-02T17:58:49.687Z,1.30
2022-11-02T18:03:54.652Z,1.33
2022-11-02T18:09:14.678Z,1.42
2022-11-02T18:14:18.430Z,1.40
2022-11-02T18:19:23.312Z,1.38
2022-11-02T18:24:26.806Z,1.55
2022-11-02T18:29:30.626Z,1.25
2022-11-02T18:34:35.539Z,1.33
2022-11-02T18:39:39.094Z,1.52
2022-11-02T18:44:43.837Z,1.50
2022-11-02T18:49:48.793Z,1.60
2022-11-02T18:54:52.997Z,1.50
2022-11-02T18:59:56.629Z,1.60
2022-11-02T19:05:01.502Z,1.42
2022-11-02T19:10:05.749Z,1.60
2022-11-02T19:15:10.835Z,1.60
2022-11-02T19:20:15.885Z,1.60
2022-11-02T19:25:19.594Z,1.70
2022-11-02T19:30:23.126Z,1.45
2022-11-02T19:35:27.969Z,1.65
2022-11-02T19:40:31.460Z,1.63
2022-11-02T19:45:35.076Z,2.10
2022-11-02T19:50:40.013Z,1.80
2022-11-02T19:55:53.045Z,1.58
2022-11-02T20:00:56.885Z,1.80
2022-11-02T20:06:03.095Z,1.67
2022-11-02T20:11:10.997Z,1.60
2022-11-02T20:16:17.773Z,1.70
2022-11-02T20:21:31.519Z,1.77
2022-11-02T20:26:40.843Z,1.70
2022-11-02T20:31:44.592Z,2.70
2022-11-02T20:36:49.999Z,2.55
2022-11-02T20:41:56.001Z,2.17
2022-11-02T20:46:59.527Z,2.40
2022-11-02T20:52:04.386Z,2.60
2022-11-02T20:57:07.923Z,2.63
2022-11-02T21:02:12.776Z,2.40
2022-11-02T21:07:18.236Z,2.33
2022-11-02T21:12:39.224Z,2.30
2022-11-02T21:17:43.093Z,2.00
2022-11-02T21:22:51.465Z,2.30
2022-11-02T21:27:55.573Z,2.40
2022-11-02T21:33:00.022Z,2.17
2022-11-02T21:38:07.829Z,2.10
2022-11-02T21:43:11.486Z,2.30
2022-11-02T21:48:15.008Z,2.40
2022-11-02T21:53:19.844Z,2.20
2022-11-02T21:58:23.287Z,2.65
2022-11-02T22:03:26.761Z,2.20
2022-11-02T22:08:40.655Z,2.28
2022-11-02T22:13:45.493Z,1.92
2022-11-02T22:18:50.202Z,2.00
2022-11-02T22:23:56.515Z,2.00
2022-11-02T22:29:01.061Z,2.22
2022-11-02T22:34:08.036Z,2.00
2022-11-02T22:39:15.281Z,2.10
2022-11-02T22:44:22.242Z,2.03
2022-11-02T22:49:25.721Z,2.53
2022-11-02T22:54:30.534Z,2.00
2022-11-02T22:59:33.967Z,2.20
2022-11-02T23:04:37.745Z,2.30
2022-11-02T23:09:42.529Z,2.20
2022-11-02T23:14:45.987Z,2.30
2022-11-02T23:19:49.483Z,2.30
2022-11-02T23:25:12.829Z,2.03
2022-11-02T23:30:30.591Z,2.50
2022-11-02T23:40:56.545Z,2.50
2022-11-02T23:45:59.992Z,2.28
2022-11-02T23:51:20.300Z,2.20
